• Join FlightAware (Why Join?)
  • Login
  • US Flag 
05:34PM EST


 

Airport Tracker/Info


-or-


 

Live Flight TrackerFlight Track Log ✈ AAR8733 ✈ 10-Aug-2014 ✈ RKSS / GMP - RKJY / RSU

Flight Track Log - Related Links

Times and Time Zones

All times are in EDT time to prevent confusion due to time zone crossing. See the AAR8733 flight status page for this flight to view local times or setup timezone preferences in your user account.

Time Position Orientation Groundspeed Altitude Reporting Facility
EDT Latitude Longitude Course Direction KTS MPH feet Rate Location/Type
07:40PM 37.5868 126.7573 313° West 170 196 3,400  Level FlightAware ADS-B (RKSO / OSN)
07:40PM 37.5920 126.7503 313° West 192 221 4,100 1,800 Climbing FlightAware ADS-B (RKSO / OSN)
07:41PM 37.6135 126.7207 312° West 222 255 4,600 1,560 Climbing FlightAware ADS-B (RKSO / OSN)
07:41PM 37.6211 126.6914 272° West 275 316 5,300 2,160 Climbing FlightAware ADS-B (RKSO / OSN)
07:42PM 37.6118 126.6608 233° Southwest 300 345 6,100 3,120 Climbing FlightAware ADS-B (RKSO / OSN)
07:42PM 37.5926 126.6352 226° Southwest 289 333 7,400 4,140 Climbing FlightAware ADS-B (RKSO / OSN)
07:42PM 37.5760 126.6136 227° Southwest 286 329 8,800 3,660 Climbing FlightAware ADS-B (RKSO / OSN)
07:43PM 37.5369 126.5631 218° Southwest 309 356 11,100 2,760 Climbing FlightAware ADS-B (RKSO / OSN)
07:43PM 37.5161 126.5502 191° South 333 383 11,600 1,800 Climbing FlightAware ADS-B (RKSO / OSN)
07:44PM 37.4805 126.5510 168° South 350 403 12,300 3,240 Climbing FlightAware ADS-B (RKSO / OSN)
07:44PM 37.4155 126.5694 168° South 326 375 14,900 3,360 Climbing FlightAware ADS-B (RKSO / OSN)
07:45PM 37.3591 126.5850 168° South 341 392 16,800 3,000 Climbing FlightAware ADS-B (RKSO / OSN)
07:46PM 37.2968 126.6036 165° South 341 392 18,900 2,340 Climbing FlightAware ADS-B (RKSO / OSN)
07:46PM 37.2316 126.6250 165° South 367 422 19,900 780 Climbing FlightAware ADS-B (RKSO / OSN)
07:47PM 37.1662 126.6465 165° South 380 437 20,000 60 Climbing FlightAware ADS-B (RKSO / OSN)
07:48PM 37.0933 126.6703 165° South 409 471 20,000  Level FlightAware ADS-B (RKSO / OSN)
07:48PM 37.0195 126.6946 165° South 411 473 20,000  Level FlightAware ADS-B (RKSO / OSN)
07:49PM 36.9465 126.7186 165° South 404 465 20,000  Level FlightAware ADS-B (RKSO / OSN)
07:50PM 36.8745 126.7475 158° South 409 471 20,000  Level FlightAware ADS-B (RKSO / OSN)
07:50PM 36.8043 126.7833 158° South 410 472 20,000  Level FlightAware ADS-B (RKSO / OSN)
07:51PM 36.7367 126.8171 163° South 409 471 20,000  Level FlightAware ADS-B (RKSO / OSN)
07:51PM 36.6966 126.8253 177° South 403 464 20,000  Level FlightAware ADS-B (RKSO / OSN)
07:52PM 36.6215 126.8286 178° South 405 466 20,000 480 Level FlightAware ADS-B (RKSO / OSN)
07:53PM 36.5493 126.8314 178° South 412 474 20,700 2,160 Climbing FlightAware ADS-B (RKSO / OSN)
07:53PM 36.4739 126.8344 178° South 397 457 22,900 2,460 Climbing FlightAware ADS-B (RKSO / OSN)
07:54PM 36.3991 126.8369 180° South 405 466 24,000 780 Climbing FlightAware ADS-B (RKSO / OSN)
07:55PM 36.3248 126.8309 185° South 402 463 24,000  Level FlightAware ADS-B (RKSO / OSN)
07:55PM 36.2499 126.8228 185° South 404 465 24,000  Level FlightAware ADS-B (RKSO / OSN)
07:56PM 36.1745 126.8147 185° South 405 466 24,000  Level FlightAware ADS-B (RKSO / OSN)
07:57PM 36.1012 126.8066 185° South 407 468 24,000  Level FlightAware ADS-B (RKSO / OSN)
07:57PM 36.0248 126.7984 185° South 408 470 24,000  Level FlightAware ADS-B (RKSO / OSN)
07:58PM 35.9492 126.7902 185° South 408 470 24,000  Level FlightAware ADS-B (RKSO / OSN)
07:59PM 35.8780 126.7825 185° South 408 470 24,000  Level FlightAware ADS-B (RKSO / OSN)
07:59PM 35.8039 126.7745 185° South 406 467 24,000  Level FlightAware ADS-B (RKSO / OSN)
08:00PM 35.7246 126.7659 185° South 408 470 24,000  Level FlightAware ADS-B (RKSO / OSN)
08:01PM 35.6514 126.7581 185° South 403 464 24,000 -240 Level FlightAware ADS-B (RKSO / OSN)
08:01PM 35.5780 126.7503 185° South 396 456 23,700 -780 Descending FlightAware ADS-B (RKSO / OSN)
08:02PM 35.5054 126.7427 185° South 368 423 23,000 -1,500 Descending FlightAware ADS-B (RKSO / OSN)
08:03PM 35.4411 126.7441 164° South 376 433 21,700 -2,340 Descending FlightAware ADS-B (RKSO / OSN)
08:03PM 35.4082 126.7645 142° Southeast 399 459 20,700 -2,700 Descending FlightAware ADS-B (RKSO / OSN)
08:03PM 35.3919 126.7850 121° Southeast 408 470 19,900 -3,000 Descending FlightAware ADS-B (RKSO / OSN)
08:04PM 35.3479 126.8735 121° Southeast 423 487 17,700 -2,340 Descending FlightAware ADS-B (RKSO / OSN)
08:05PM 35.3105 126.9489 121° Southeast 396 456 16,800 -1,560 Descending FlightAware ADS-B (RKSO / OSN)
08:05PM 35.2686 127.0334 121° Southeast 382 440 15,700 -1,680 Descending FlightAware ADS-B (RKSO / OSN)
08:08PM 35.1473 127.1991 132° Southeast  Level Estimated
08:09PM 35.0952 127.2699 132° Southeast  Level Estimated
08:10PM 35.0431 127.3407 132° Southeast  Level Estimated
08:11PM 34.9909 127.4114 132° Southeast  Level Estimated
08:12PM 34.9387 127.4819 132° Southeast  Level Estimated
08:13PM 34.8865 127.5524 132° Southeast  Level Estimated
08:14PM 34.8398 127.6153 132° Southeast  Level Estimated
08:15PM 34.8398 127.6153 North  Level Estimated
08:16PM 34.8398 127.6153 North  Level Estimated
08:17PM 34.8398 127.6153 North  Level Estimated
08:18PM 34.8398 127.6153 North  Level Estimated
08:19PM 34.8398 127.6153 North  Level Estimated
08:20PM 34.8398 127.6153 North  Level Estimated
08:21PM 34.8398 127.6153 North  Level Estimated
08:22PM 34.8398 127.6153 North  Level Estimated
08:23PM 34.8398 127.6153 North  Level Estimated
08:24PM 34.8398 127.6153 North  Level Estimated
08:25PM 34.8398 127.6153 North  Level Estimated
08:26PM 34.8398 127.6153 North  Level Estimated
08:27PM 34.8398 127.6153 North  Level Estimated
08:28PM 34.8398 127.6153 North  Level Estimated
08:29PM 34.8398 127.6153 North  Level Estimated
08:30PM 34.8398 127.6153 North  Level Estimated
08:31PM 34.8398 127.6153 North  Level Estimated